Time;durP1;ratioP1;P1;durP2;ratioP2;P2;SDS_P1;SDS_P2;PMS_P1;PMS_P2;Temp;Humidity;BMP_temperature;BMP_pressure;BME280_temperature;BME280_humidity;BME280_pressure;Samples;Min_cycle;Max_cycle;Signal;HPM_P1;HPM_P2
2023/04/06 00:02:06;;;;;;;12.02;7.53;;;3.10;92.00;;;;;;4990324;28;20029;-77
2023/04/06 00:04:32;;;;;;;16.75;8.95;;;3.10;92.00;;;;;;4989779;28;20030;-77
2023/04/06 00:06:57;;;;;;;18.50;8.38;;;3.10;92.20;;;;;;5005740;28;20085;-77
2023/04/06 00:09:23;;;;;;;14.48;8.35;;;3.10;92.10;;;;;;4984357;28;20475;-77
2023/04/06 00:11:48;;;;;;;14.02;8.82;;;3.00;92.30;;;;;;4984994;28;20155;-76
2023/04/06 00:14:17;;;;;;;12.63;8.25;;;3.00;92.30;;;;;;4984453;28;20027;-77
2023/04/06 00:16:42;;;;;;;14.25;8.52;;;3.00;92.30;;;;;;4989960;28;20104;-77
2023/04/06 00:19:08;;;;;;;12.35;7.80;;;3.00;92.30;;;;;;4987925;28;20046;-77
2023/04/06 00:21:33;;;;;;;13.20;7.82;;;2.90;92.50;;;;;;4987925;28;20026;-77
2023/04/06 00:23:59;;;;;;;14.40;8.02;;;2.90;92.40;;;;;;4991083;28;20094;-77
2023/04/06 00:26:25;;;;;;;13.55;7.93;;;2.90;92.50;;;;;;4986293;28;20043;-76
2023/04/06 00:28:52;;;;;;;12.65;7.68;;;2.80;92.60;;;;;;4984158;28;20030;-76
2023/04/06 00:31:17;;;;;;;13.43;7.82;;;2.80;92.60;;;;;;4986594;28;20023;-77
2023/04/06 00:33:43;;;;;;;14.27;7.93;;;2.80;92.60;;;;;;4986885;28;20027;-77
2023/04/06 00:36:09;;;;;;;13.50;7.82;;;2.80;92.60;;;;;;4989465;28;20416;-77
2023/04/06 00:38:34;;;;;;;12.48;8.00;;;2.70;92.70;;;;;;4991881;28;20395;-76
2023/04/06 00:41:00;;;;;;;11.48;7.47;;;2.70;92.70;;;;;;4992234;28;20383;-76
2023/04/06 00:43:26;;;;;;;14.38;7.90;;;2.70;92.80;;;;;;4989061;28;20026;-77
2023/04/06 00:45:52;;;;;;;11.73;7.75;;;2.70;92.70;;;;;;4999694;28;20030;-77
2023/04/06 00:48:18;;;;;;;14.73;8.63;;;2.60;92.80;;;;;;4993426;28;20041;-77
2023/04/06 00:50:44;;;;;;;15.85;8.48;;;2.60;92.80;;;;;;4993823;28;20022;-78
2023/04/06 00:53:10;;;;;;;12.95;7.78;;;2.60;92.80;;;;;;4990118;28;20034;-77
2023/04/06 00:55:35;;;;;;;15.45;7.43;;;2.60;92.80;;;;;;4992128;28;20023;-77
2023/04/06 00:58:01;;;;;;;14.35;7.82;;;2.60;92.80;;;;;;4990869;28;20109;-77
2023/04/06 01:00:27;;;;;;;13.32;7.85;;;2.60;92.80;;;;;;4991187;28;20489;-77
2023/04/06 01:02:53;;;;;;;13.85;8.18;;;2.50;92.70;;;;;;4991363;28;20065;-76
2023/04/06 01:05:19;;;;;;;14.45;8.00;;;2.60;92.70;;;;;;4992081;28;20030;-77
2023/04/06 01:07:45;;;;;;;11.45;7.43;;;2.50;92.70;;;;;;4991077;28;20030;-77
2023/04/06 01:10:21;;;;;;;14.77;6.95;;;2.50;92.80;;;;;;4992698;28;20030;-77
2023/04/06 01:12:47;;;;;;;11.38;6.63;;;2.50;92.80;;;;;;4987745;28;20565;-77
2023/04/06 01:15:13;;;;;;;16.38;7.70;;;2.50;92.80;;;;;;5002658;28;20165;-77
2023/04/06 01:17:40;;;;;;;16.85;8.25;;;2.40;92.80;;;;;;4988489;28;20113;-77
2023/04/06 01:20:06;;;;;;;16.15;8.38;;;2.40;93.10;;;;;;4989965;28;20034;-77
2023/04/06 01:22:32;;;;;;;14.07;8.30;;;2.30;93.60;;;;;;5004480;28;20034;-77
2023/04/06 01:24:58;;;;;;;12.90;7.95;;;2.30;93.90;;;;;;4992658;28;20042;-77
2023/04/06 01:27:25;;;;;;;14.40;9.18;;;2.30;94.50;;;;;;4991893;28;20064;-77
2023/04/06 01:29:51;;;;;;;14.27;8.18;;;2.30;94.90;;;;;;4988885;28;20030;-77
2023/04/06 01:32:16;;;;;;;15.75;8.40;;;2.20;95.30;;;;;;5000982;28;20046;-76
2023/04/06 01:34:42;;;;;;;16.13;8.55;;;2.20;95.50;;;;;;4990172;28;20026;-76
2023/04/06 01:37:08;;;;;;;19.88;9.07;;;2.10;95.80;;;;;;4990758;28;20121;-77
2023/04/06 01:39:33;;;;;;;18.40;9.65;;;2.10;95.90;;;;;;4988815;28;20533;-77
2023/04/06 01:41:59;;;;;;;13.75;8.30;;;2.10;96.60;;;;;;4987244;28;20436;-77
2023/04/06 01:44:25;;;;;;;15.85;9.02;;;2.00;96.40;;;;;;4989081;28;20545;-76
2023/04/06 01:46:50;;;;;;;15.10;9.40;;;2.00;96.40;;;;;;4987337;28;20476;-76
2023/04/06 01:49:16;;;;;;;15.70;8.65;;;1.90;96.40;;;;;;4986483;28;20505;-76
2023/04/06 01:51:41;;;;;;;15.25;9.23;;;1.90;96.50;;;;;;4990329;28;20026;-77
2023/04/06 01:54:07;;;;;;;15.30;8.52;;;1.90;96.60;;;;;;4989211;28;20022;-77
2023/04/06 01:56:33;;;;;;;16.02;9.10;;;1.80;97.00;;;;;;4991275;28;20030;-77
2023/04/06 01:58:59;;;;;;;16.70;8.70;;;1.70;97.10;;;;;;4988757;28;20038;-77
2023/04/06 02:01:25;;;;;;;14.52;8.30;;;1.70;97.20;;;;;;4987991;28;20577;-77
2023/04/06 02:03:51;;;;;;;13.10;7.68;;;1.70;97.30;;;;;;4991549;28;20029;-76
2023/04/06 02:06:16;;;;;;;13.80;7.78;;;1.70;97.50;;;;;;4984085;28;20026;-77
2023/04/06 02:08:42;;;;;;;14.00;8.00;;;1.70;97.80;;;;;;4988685;28;20551;-77
2023/04/06 02:11:07;;;;;;;13.88;8.90;;;1.70;98.00;;;;;;4988624;28;20038;-77
2023/04/06 02:13:33;;;;;;;19.83;9.35;;;1.70;98.00;;;;;;4989559;28;20360;-77
2023/04/06 02:15:59;;;;;;;14.45;8.65;;;1.70;98.00;;;;;;4989273;28;20030;-76
2023/04/06 02:18:25;;;;;;;17.73;8.18;;;1.70;98.00;;;;;;4979391;28;20443;-77
2023/04/06 02:20:50;;;;;;;13.65;8.07;;;1.60;98.10;;;;;;4989419;28;20063;-77
2023/04/06 02:23:16;;;;;;;12.68;7.90;;;1.60;98.20;;;;;;4989328;28;20026;-77
2023/04/06 02:25:42;;;;;;;14.15;9.02;;;1.50;98.20;;;;;;4987739;28;20118;-77
2023/04/06 02:28:08;;;;;;;17.95;8.05;;;1.50;98.30;;;;;;4989185;28;20435;-77
2023/04/06 02:30:33;;;;;;;13.43;8.15;;;1.40;98.40;;;;;;4993714;28;20034;-77
2023/04/06 02:33:02;;;;;;;13.13;7.85;;;1.30;98.40;;;;;;4995358;28;20039;-77
2023/04/06 02:35:30;;;;;;;17.27;8.05;;;1.30;98.60;;;;;;4996068;28;20118;-77
2023/04/06 02:37:55;;;;;;;13.52;8.20;;;1.30;98.90;;;;;;4996624;28;20024;-77
2023/04/06 02:40:21;;;;;;;14.60;8.10;;;1.30;98.90;;;;;;4992028;28;20030;-77
2023/04/06 02:42:47;;;;;;;14.18;7.78;;;1.20;99.10;;;;;;4990504;28;20038;-77
2023/04/06 02:45:13;;;;;;;12.48;7.95;;;1.20;99.10;;;;;;4986715;28;20042;-77
2023/04/06 02:47:38;;;;;;;14.77;7.90;;;1.20;99.20;;;;;;4991122;28;20026;-77
2023/04/06 02:50:05;;;;;;;15.30;9.30;;;1.20;99.30;;;;;;4990969;28;20030;-77
2023/04/06 02:52:31;;;;;;;14.52;8.38;;;1.20;99.70;;;;;;4990504;28;20018;-77
2023/04/06 02:54:57;;;;;;;14.88;8.20;;;1.20;99.90;;;;;;4986896;28;20577;-77
2023/04/06 02:57:22;;;;;;;13.93;7.90;;;1.20;99.90;;;;;;4990288;28;20062;-77
2023/04/06 02:59:48;;;;;;;14.55;7.75;;;1.10;99.90;;;;;;4987027;28;20491;-77
2023/04/06 03:02:14;;;;;;;14.25;8.63;;;1.10;99.90;;;;;;4978350;28;20061;-77
2023/04/06 03:04:40;;;;;;;15.38;9.00;;;1.10;99.90;;;;;;4983330;28;20066;-77
2023/04/06 03:07:05;;;;;;;15.85;9.00;;;1.10;99.90;;;;;;5004334;28;20034;-77
2023/04/06 03:09:31;;;;;;;17.15;9.13;;;1.00;99.90;;;;;;4987842;28;21022;-77
2023/04/06 03:11:57;;;;;;;17.15;8.68;;;1.00;99.90;;;;;;4985644;28;20041;-77
2023/04/06 03:14:23;;;;;;;19.13;8.70;;;1.00;99.90;;;;;;4984867;28;20112;-77
2023/04/06 03:16:49;;;;;;;16.58;9.27;;;1.00;99.90;;;;;;4984857;28;20026;-77
2023/04/06 03:19:15;;;;;;;14.38;8.77;;;0.90;99.90;;;;;;4987013;28;20058;-76
2023/04/06 03:21:42;;;;;;;14.02;9.27;;;0.90;99.90;;;;;;4992067;28;20026;-77
2023/04/06 03:24:08;;;;;;;15.90;9.27;;;0.90;99.90;;;;;;4989381;28;20026;-76
2023/04/06 03:26:34;;;;;;;15.50;8.98;;;0.90;99.90;;;;;;4988815;28;20034;-76
2023/04/06 03:29:00;;;;;;;19.05;8.55;;;0.80;99.90;;;;;;4997718;28;20512;-77
2023/04/06 03:31:26;;;;;;;16.65;9.32;;;0.80;99.90;;;;;;4988108;28;20037;-77
2023/04/06 03:33:52;;;;;;;18.58;8.98;;;0.70;99.90;;;;;;4988346;28;20027;-77
2023/04/06 03:36:17;;;;;;;16.45;9.25;;;0.70;99.90;;;;;;4997133;28;20113;-76
2023/04/06 03:38:43;;;;;;;18.52;8.65;;;0.70;99.90;;;;;;4988850;28;20030;-76
2023/04/06 03:41:09;;;;;;;17.45;9.07;;;0.70;99.90;;;;;;5001016;28;20084;-77
2023/04/06 03:43:35;;;;;;;15.68;9.05;;;0.70;99.90;;;;;;4987732;28;20026;-77
2023/04/06 03:46:01;;;;;;;14.65;8.88;;;0.70;99.90;;;;;;4986308;28;20649;-77
2023/04/06 03:48:26;;;;;;;17.10;9.55;;;0.70;99.90;;;;;;5002089;28;20084;-77
2023/04/06 03:50:52;;;;;;;14.35;8.93;;;0.70;99.90;;;;;;4987723;28;20105;-76
2023/04/06 03:53:18;;;;;;;17.13;9.15;;;0.70;99.90;;;;;;4985402;28;20022;-77
2023/04/06 03:55:43;;;;;;;18.20;9.60;;;0.70;99.90;;;;;;4988915;28;20022;-76
2023/04/06 03:58:09;;;;;;;14.73;8.80;;;0.70;99.90;;;;;;4985157;28;20132;-76
2023/04/06 04:00:35;;;;;;;14.60;8.45;;;0.70;99.90;;;;;;4987436;28;20530;-76
2023/04/06 04:03:02;;;;;;;14.82;9.10;;;0.70;99.90;;;;;;4986308;28;20030;-77
2023/04/06 04:05:28;;;;;;;18.02;8.82;;;0.60;99.90;;;;;;5033563;22;20046;-78
2023/04/06 04:07:53;;;;;;;15.60;8.85;;;0.60;99.90;;;;;;4989826;28;20061;-79
2023/04/06 04:10:19;;;;;;;14.30;8.52;;;0.60;99.90;;;;;;4986451;28;20460;-79
2023/04/06 04:12:45;;;;;;;19.05;9.10;;;0.60;99.90;;;;;;4992317;28;20033;-79
2023/04/06 04:15:10;;;;;;;16.95;8.90;;;0.60;99.90;;;;;;4992321;28;20075;-78
2023/04/06 04:17:36;;;;;;;17.38;9.27;;;0.60;99.90;;;;;;4988941;28;20089;-78
2023/04/06 04:20:02;;;;;;;14.70;8.23;;;0.50;99.90;;;;;;4999051;28;20485;-79
2023/04/06 04:22:27;;;;;;;15.25;8.68;;;0.50;99.90;;;;;;4989320;28;20368;-78
2023/04/06 04:24:53;;;;;;;16.40;8.65;;;0.50;99.90;;;;;;5012549;28;20030;-78
2023/04/06 04:27:20;;;;;;;16.77;8.70;;;0.50;99.90;;;;;;4998780;28;20083;-79
2023/04/06 04:29:46;;;;;;;19.85;9.00;;;0.40;99.90;;;;;;4995631;28;20022;-78
2023/04/06 04:32:11;;;;;;;15.73;8.70;;;0.40;99.90;;;;;;4993500;28;20109;-79
2023/04/06 04:34:40;;;;;;;17.63;8.82;;;0.40;99.90;;;;;;4998562;28;20022;-78
2023/04/06 04:37:05;;;;;;;20.38;9.25;;;0.30;99.90;;;;;;4999015;28;20025;-78
2023/04/06 04:39:31;;;;;;;18.15;9.25;;;0.30;99.90;;;;;;4993549;28;20038;-78
2023/04/06 04:41:57;;;;;;;17.40;8.68;;;0.30;99.90;;;;;;4993409;28;20038;-82
2023/04/06 04:44:23;;;;;;;16.85;8.77;;;0.30;99.90;;;;;;4993248;28;20098;-80
2023/04/06 04:46:48;;;;;;;15.25;9.00;;;0.20;99.90;;;;;;4982697;28;20696;-81
2023/04/06 04:49:14;;;;;;;19.05;9.68;;;0.30;99.90;;;;;;5005886;28;20030;-79
2023/04/06 04:51:40;;;;;;;20.23;9.63;;;0.20;99.90;;;;;;4992598;28;20027;-81
2023/04/06 04:54:06;;;;;;;14.43;9.05;;;0.20;99.90;;;;;;4998869;28;20022;-81
2023/04/06 04:56:31;;;;;;;19.83;10.00;;;0.30;99.90;;;;;;4994182;28;20581;-81
2023/04/06 04:58:57;;;;;;;22.92;10.00;;;0.30;99.90;;;;;;4993591;28;20116;-79
2023/04/06 05:01:23;;;;;;;21.05;10.48;;;0.30;99.90;;;;;;4991088;28;20097;-78
2023/04/06 05:03:48;;;;;;;22.90;10.13;;;0.40;99.90;;;;;;4992239;28;20553;-79
2023/04/06 05:06:14;;;;;;;15.40;9.40;;;0.40;99.90;;;;;;4984143;28;20061;-77
2023/04/06 05:08:41;;;;;;;19.63;9.98;;;0.40;99.90;;;;;;4988837;28;20034;-78
2023/04/06 05:11:06;;;;;;;22.83;10.63;;;0.40;99.90;;;;;;4994283;28;20038;-76
2023/04/06 05:13:32;;;;;;;22.02;10.65;;;0.50;99.90;;;;;;5004633;28;20039;-78
2023/04/06 05:15:58;;;;;;;20.10;9.48;;;0.50;99.90;;;;;;4997668;28;20023;-78
2023/04/06 05:18:23;;;;;;;19.02;10.02;;;0.50;99.90;;;;;;4996099;28;20037;-78
2023/04/06 05:20:51;;;;;;;16.33;8.82;;;0.50;99.90;;;;;;5035280;28;20037;-78
2023/04/06 05:23:17;;;;;;;18.52;9.55;;;0.60;99.90;;;;;;5010232;28;20107;-79
2023/04/06 05:25:42;;;;;;;16.52;10.07;;;0.60;99.90;;;;;;4983694;28;20325;-80
2023/04/06 05:28:08;;;;;;;23.40;10.68;;;0.60;99.90;;;;;;5004212;28;20085;-80
2023/04/06 05:30:35;;;;;;;18.85;10.38;;;0.60;99.90;;;;;;5002008;28;20026;-81
2023/04/06 05:33:01;;;;;;;20.25;11.23;;;0.70;99.90;;;;;;5012786;28;20042;-79
2023/04/06 05:35:26;;;;;;;24.02;10.10;;;0.70;99.90;;;;;;5018152;28;20026;-79
2023/04/06 05:37:52;;;;;;;19.30;9.75;;;0.80;99.90;;;;;;5007460;28;20034;-79
2023/04/06 05:40:18;;;;;;;17.65;9.15;;;0.90;99.90;;;;;;4987822;28;20030;-79
2023/04/06 05:42:43;;;;;;;17.27;9.75;;;0.90;99.90;;;;;;4992558;28;20110;-80
2023/04/06 05:45:10;;;;;;;19.58;9.48;;;1.10;99.90;;;;;;5002940;28;20041;-81
2023/04/06 05:47:36;;;;;;;19.52;10.95;;;1.10;99.90;;;;;;4990586;28;20097;-81
2023/04/06 05:50:03;;;;;;;21.35;10.50;;;1.10;99.90;;;;;;4999710;28;20495;-81
2023/04/06 05:52:31;;;;;;;26.33;11.90;;;1.20;99.90;;;;;;4991547;28;20473;-80
2023/04/06 05:54:57;;;;;;;23.30;11.23;;;1.30;99.90;;;;;;5007494;28;20137;-81
2023/04/06 05:57:23;;;;;;;19.67;10.77;;;1.30;99.90;;;;;;4995187;28;20037;-81
2023/04/06 05:59:48;;;;;;;25.25;11.88;;;1.40;99.90;;;;;;4989390;28;20022;-81
2023/04/06 06:02:14;;;;;;;20.88;10.55;;;1.50;99.90;;;;;;4990364;28;20472;-80
2023/04/06 06:04:40;;;;;;;26.08;12.00;;;1.50;99.90;;;;;;4991658;28;20447;-81
2023/04/06 06:07:05;;;;;;;21.73;11.15;;;1.70;99.90;;;;;;4945394;28;1146961;-80
2023/04/06 06:09:31;;;;;;;16.00;10.20;;;1.70;99.90;;;;;;4996231;28;20033;-80
2023/04/06 06:11:57;;;;;;;19.15;10.68;;;1.80;99.90;;;;;;4979721;28;20030;-79
2023/04/06 06:14:23;;;;;;;18.90;10.15;;;1.90;99.90;;;;;;4988544;28;20026;-79
2023/04/06 06:16:48;;;;;;;18.83;9.57;;;1.90;99.90;;;;;;4990652;28;20030;-81
2023/04/06 06:19:14;;;;;;;20.98;10.55;;;2.00;99.90;;;;;;4996383;28;20034;-79
2023/04/06 06:21:40;;;;;;;18.77;10.35;;;2.10;99.90;;;;;;5000643;28;20346;-79
2023/04/06 06:24:07;;;;;;;20.38;9.95;;;2.10;99.90;;;;;;4990409;28;20031;-79
2023/04/06 06:26:32;;;;;;;18.63;10.23;;;2.20;99.90;;;;;;4981507;28;20487;-79
2023/04/06 06:28:58;;;;;;;16.90;9.90;;;2.30;99.90;;;;;;4998033;28;20034;-77
2023/04/06 06:31:24;;;;;;;18.17;9.60;;;2.30;99.90;;;;;;5002502;28;20511;-78
2023/04/06 06:33:51;;;;;;;18.42;10.90;;;2.40;99.90;;;;;;4991343;28;20014;-78
2023/04/06 06:36:19;;;;;;;21.27;10.95;;;2.40;99.90;;;;;;4988798;28;20027;-78
2023/04/06 06:38:45;;;;;;;15.63;9.40;;;2.50;99.90;;;;;;4989341;28;20033;-78
2023/04/06 06:41:11;;;;;;;18.35;11.05;;;2.50;99.90;;;;;;4994800;28;20058;-79
2023/04/06 06:43:37;;;;;;;17.83;9.70;;;2.60;99.90;;;;;;4986150;28;20466;-79
2023/04/06 06:46:03;;;;;;;19.77;10.27;;;2.60;99.90;;;;;;4983091;28;20081;-79
2023/04/06 06:48:29;;;;;;;16.58;9.25;;;2.70;99.90;;;;;;4991980;28;20057;-78
2023/04/06 06:50:55;;;;;;;23.15;10.27;;;2.80;99.90;;;;;;4981575;28;20487;-80
2023/04/06 06:53:21;;;;;;;15.18;9.30;;;2.90;99.90;;;;;;4979923;28;20105;-80
2023/04/06 06:55:48;;;;;;;21.60;9.07;;;2.90;99.90;;;;;;4983883;28;26095;-79
2023/04/06 06:58:14;;;;;;;16.17;9.02;;;3.00;99.60;;;;;;4972696;28;20034;-78
2023/04/06 07:00:40;;;;;;;17.50;10.23;;;3.00;99.80;;;;;;4987044;28;20057;-78
2023/04/06 07:03:06;;;;;;;19.55;9.23;;;3.00;99.20;;;;;;4984799;28;20110;-79
2023/04/06 07:05:32;;;;;;;20.30;9.38;;;3.10;99.20;;;;;;4996790;28;20037;-78
2023/04/06 07:07:57;;;;;;;15.35;9.25;;;3.10;99.20;;;;;;4981215;28;20030;-78
2023/04/06 07:10:23;;;;;;;16.92;9.48;;;3.20;99.00;;;;;;4985091;28;20097;-77
2023/04/06 07:12:49;;;;;;;16.30;8.70;;;3.30;99.00;;;;;;4994273;28;20033;-77
2023/04/06 07:15:15;;;;;;;17.08;9.50;;;3.30;99.00;;;;;;4985803;28;20054;-78
2023/04/06 07:17:41;;;;;;;23.63;11.40;;;3.40;98.90;;;;;;4985429;28;20022;-78
2023/04/06 07:20:07;;;;;;;22.23;9.80;;;3.50;98.60;;;;;;4993817;28;20026;-77
2023/04/06 07:22:33;;;;;;;22.58;11.10;;;3.50;98.60;;;;;;4990057;28;20022;-79
2023/04/06 07:24:59;;;;;;;18.00;9.82;;;3.60;98.60;;;;;;4989727;28;20510;-79
2023/04/06 07:27:24;;;;;;;19.67;9.95;;;3.70;98.60;;;;;;4985120;28;20407;-77
2023/04/06 07:29:50;;;;;;;25.65;10.20;;;3.80;98.80;;;;;;4987700;28;20030;-78
2023/04/06 07:32:16;;;;;;;23.63;10.13;;;3.90;98.60;;;;;;4985932;28;20386;-78
2023/04/06 07:34:41;;;;;;;17.42;9.52;;;4.00;98.20;;;;;;4983108;28;20081;-78
2023/04/06 07:37:10;;;;;;;15.90;9.48;;;4.10;98.20;;;;;;4982537;28;20388;-77
2023/04/06 07:39:35;;;;;;;19.20;9.80;;;4.20;97.80;;;;;;4987685;28;20040;-77
2023/04/06 07:42:01;;;;;;;18.65;10.15;;;4.20;97.40;;;;;;4988644;28;20430;-77
2023/04/06 07:44:27;;;;;;;17.50;10.30;;;4.20;96.70;;;;;;4991497;28;20026;-77
2023/04/06 07:46:52;;;;;;;18.70;9.95;;;4.20;96.70;;;;;;4988373;28;20031;-77
2023/04/06 07:49:20;;;;;;;17.65;10.38;;;4.30;96.50;;;;;;4991271;28;20393;-77
2023/04/06 07:51:46;;;;;;;18.65;10.57;;;4.40;96.00;;;;;;4992264;28;20109;-77
2023/04/06 07:54:11;;;;;;;16.00;9.00;;;4.40;96.20;;;;;;4990558;28;20154;-77
2023/04/06 07:56:37;;;;;;;19.80;10.15;;;4.50;95.90;;;;;;4991652;28;20026;-76
2023/04/06 07:59:03;;;;;;;18.60;10.40;;;4.50;95.60;;;;;;4989580;28;20023;-77
2023/04/06 08:01:29;;;;;;;16.48;9.93;;;4.60;95.70;;;;;;4990841;28;20030;-77
2023/04/06 08:03:56;;;;;;;22.33;11.45;;;4.70;95.60;;;;;;4990349;28;20027;-77
2023/04/06 08:06:21;;;;;;;22.65;10.15;;;4.70;95.10;;;;;;4993678;28;20038;-78
2023/04/06 08:08:47;;;;;;;17.25;9.73;;;4.80;95.30;;;;;;4990931;28;20041;-77
2023/04/06 08:11:13;;;;;;;22.83;10.80;;;4.90;95.50;;;;;;4995677;28;20030;-77
2023/04/06 08:13:38;;;;;;;21.77;11.05;;;5.00;95.10;;;;;;4991534;28;20026;-78
2023/04/06 08:16:04;;;;;;;25.20;10.30;;;5.00;95.30;;;;;;4988449;28;20030;-78
2023/04/06 08:18:30;;;;;;;28.05;10.98;;;5.10;95.10;;;;;;4991695;28;20120;-78
2023/04/06 08:20:56;;;;;;;20.65;10.07;;;5.20;95.00;;;;;;4990967;28;20430;-78
2023/04/06 08:23:22;;;;;;;23.40;10.48;;;5.30;95.00;;;;;;4992346;28;20062;-78
2023/04/06 08:25:48;;;;;;;25.92;11.10;;;5.40;94.20;;;;;;4993783;28;20045;-78
2023/04/06 08:28:14;;;;;;;22.85;10.77;;;5.40;94.20;;;;;;4991466;28;20450;-78
2023/04/06 08:30:42;;;;;;;18.58;10.40;;;5.50;93.80;;;;;;4980342;28;20026;-78
2023/04/06 08:33:09;;;;;;;19.00;10.25;;;5.60;93.40;;;;;;4991649;28;20026;-78
2023/04/06 08:35:35;;;;;;;36.85;11.77;;;5.60;93.50;;;;;;4994176;28;20065;-79
2023/04/06 08:38:00;;;;;;;22.42;10.55;;;5.80;93.60;;;;;;4998387;28;20058;-78
2023/04/06 08:40:27;;;;;;;21.10;9.00;;;5.90;92.70;;;;;;4990228;28;20050;-78
2023/04/06 08:42:56;;;;;;;17.65;9.25;;;6.00;92.70;;;;;;5008465;28;20486;-78
2023/04/06 08:45:22;;;;;;;18.48;8.82;;;6.10;92.70;;;;;;4986387;28;20046;-78
2023/04/06 08:47:54;;;;;;;21.30;9.48;;;6.20;90.40;;;;;;4995879;28;20033;-78
2023/04/06 08:50:21;;;;;;;15.13;8.05;;;6.30;91.00;;;;;;4994650;28;20035;-77
2023/04/06 08:52:48;;;;;;;14.32;8.10;;;6.40;90.70;;;;;;4990593;28;20494;-78
2023/04/06 08:55:14;;;;;;;13.90;8.73;;;6.50;90.40;;;;;;4991497;28;20039;-78
2023/04/06 08:57:41;;;;;;;15.43;9.20;;;6.60;89.70;;;;;;4998018;28;20028;-78
2023/04/06 09:00:10;;;;;;;15.93;8.35;;;6.60;89.60;;;;;;4998394;28;20483;-78
2023/04/06 09:02:40;;;;;;;18.15;8.48;;;6.70;89.10;;;;;;4996707;28;20475;-78
2023/04/06 09:05:08;;;;;;;18.73;8.70;;;6.80;89.30;;;;;;4998109;28;20069;-78
2023/04/06 09:07:34;;;;;;;14.95;8.90;;;6.90;88.20;;;;;;4993043;28;20120;-78
2023/04/06 09:10:00;;;;;;;13.73;8.13;;;7.00;87.40;;;;;;4996969;28;20568;-78
2023/04/06 09:12:28;;;;;;;15.60;8.77;;;7.10;87.10;;;;;;4996801;28;20029;-78
2023/04/06 09:14:55;;;;;;;18.05;8.23;;;7.20;85.70;;;;;;4993245;28;20447;-77
2023/04/06 09:17:33;;;;;;;15.55;8.52;;;7.30;86.10;;;;;;4991571;28;20018;-77
2023/04/06 09:20:00;;;;;;;12.10;8.02;;;7.40;86.00;;;;;;4998595;28;20030;-77
2023/04/06 09:22:35;;;;;;;18.23;8.55;;;7.40;85.50;;;;;;4991265;28;20392;-77
2023/04/06 09:25:01;;;;;;;16.30;9.30;;;7.60;83.20;;;;;;4995879;28;20031;-77
2023/04/06 09:27:32;;;;;;;22.30;9.20;;;7.60;83.20;;;;;;4995966;28;20036;-77
2023/04/06 09:30:15;;;;;;;15.18;9.30;;;7.70;83.40;;;;;;4991639;28;20068;-78
2023/04/06 09:33:07;;;;;;;14.55;8.68;;;7.80;83.60;;;;;;5007286;28;20506;-78
2023/04/06 09:35:33;;;;;;;17.23;8.45;;;8.00;82.20;;;;;;4997989;28;20025;-78
2023/04/06 09:37:59;;;;;;;15.65;9.43;;;8.10;81.30;;;;;;4992289;28;20026;-78
2023/04/06 09:40:25;;;;;;;15.73;8.52;;;8.10;80.80;;;;;;4997209;28;20111;-78
2023/04/06 09:42:52;;;;;;;12.00;7.07;;;8.20;79.90;;;;;;4994215;28;20367;-78
2023/04/06 09:45:18;;;;;;;16.65;8.38;;;8.30;79.30;;;;;;4994809;28;20045;-78
2023/04/06 09:47:45;;;;;;;13.90;8.48;;;8.40;77.90;;;;;;4989017;28;20738;-78
2023/04/06 09:50:12;;;;;;;13.80;7.38;;;8.50;76.70;;;;;;5007272;28;20026;-78
2023/04/06 09:52:46;;;;;;;11.63;7.10;;;8.50;75.60;;;;;;4996848;28;20105;-78
2023/04/06 09:55:15;;;;;;;12.18;7.22;;;8.60;76.30;;;;;;4984675;28;20507;-78
2023/04/06 09:57:59;;;;;;;10.70;6.45;;;8.70;75.10;;;;;;4995172;28;20079;-78
2023/04/06 10:00:26;;;;;;;13.27;7.20;;;8.80;73.50;;;;;;5007217;28;20022;-78
2023/04/06 10:03:13;;;;;;;12.80;6.57;;;8.80;73.00;;;;;;4991679;28;20062;-78
2023/04/06 10:06:05;;;;;;;15.55;6.57;;;8.90;72.70;;;;;;5009572;23;20094;-75
2023/04/06 10:08:34;;;;;;;12.55;7.32;;;9.00;73.00;;;;;;5021084;28;20042;-76
2023/04/06 10:11:08;;;;;;;17.48;7.90;;;9.10;72.80;;;;;;5026382;28;20018;-76
2023/04/06 10:13:34;;;;;;;;;;;9.20;72.60;;;;;;5019543;28;20108;-77
2023/04/06 10:16:13;;;;;;;12.60;7.13;;;9.20;71.70;;;;;;5041001;28;19937;-75
2023/04/06 10:18:46;;;;;;;11.82;7.20;;;9.30;72.20;;;;;;5018124;28;20026;-77
2023/04/06 10:21:20;;;;;;;12.07;6.80;;;9.30;71.60;;;;;;5017117;28;20026;-77
2023/04/06 10:23:55;;;;;;;13.68;7.07;;;9.30;71.70;;;;;;5015747;28;20041;-75
2023/04/06 10:26:21;;;;;;;19.63;7.65;;;9.30;71.30;;;;;;5013902;28;20033;-76
2023/04/06 10:28:49;;;;;;;13.68;7.82;;;9.30;71.20;;;;;;5011489;28;20049;-78
2023/04/06 10:31:15;;;;;;;12.82;7.22;;;9.30;70.70;;;;;;5014132;28;20076;-77
2023/04/06 10:33:41;;;;;;;10.88;7.13;;;9.30;70.80;;;;;;5026745;28;20053;-79
2023/04/06 10:36:23;;;;;;;10.15;6.28;;;9.40;70.60;;;;;;5015718;28;20014;-77
2023/04/06 10:39:11;;;;;;;12.27;6.25;;;9.50;70.10;;;;;;5012362;28;20104;-78
2023/04/06 10:41:48;;;;;;;9.00;5.57;;;9.60;68.90;;;;;;5018746;28;20053;-78
2023/04/06 10:44:24;;;;;;;7.95;5.30;;;9.80;67.80;;;;;;5018638;28;20114;-78
2023/04/06 10:47:00;;;;;;;8.25;5.40;;;9.80;67.50;;;;;;5016746;28;20033;-76
2023/04/06 10:49:26;;;;;;;10.77;6.18;;;9.90;67.30;;;;;;5012047;28;20163;-77
2023/04/06 10:51:56;;;;;;;9.05;5.90;;;9.90;66.60;;;;;;5015326;28;20486;-77
2023/04/06 10:54:24;;;;;;;9.73;6.53;;;9.90;66.50;;;;;;5013086;28;20051;-77
2023/04/06 10:56:50;;;;;;;8.57;5.90;;;9.90;66.40;;;;;;5013355;28;20068;-76
2023/04/06 10:59:22;;;;;;;10.55;5.57;;;9.90;67.30;;;;;;5008594;28;20538;-77
2023/04/06 11:01:48;;;;;;;10.88;5.88;;;9.90;66.00;;;;;;5009946;28;20336;-77
2023/04/06 11:04:18;;;;;;;9.73;4.93;;;9.90;65.90;;;;;;5019876;28;20029;-76
2023/04/06 11:06:47;;;;;;;9.27;5.13;;;9.90;65.00;;;;;;5015178;28;20023;-77
2023/04/06 11:09:26;;;;;;;11.93;6.38;;;9.90;64.40;;;;;;5009923;28;20045;-76
2023/04/06 11:11:53;;;;;;;7.50;5.18;;;10.00;64.50;;;;;;5009554;28;20037;-77
2023/04/06 11:14:18;;;;;;;10.18;5.80;;;10.00;64.40;;;;;;5007977;28;20084;-77
2023/04/06 11:16:48;;;;;;;8.52;4.90;;;10.00;64.60;;;;;;5006225;28;20017;-76
2023/04/06 11:19:14;;;;;;;9.13;5.00;;;10.10;64.20;;;;;;5003919;28;20084;-77
2023/04/06 11:21:47;;;;;;;9.85;5.22;;;10.20;63.80;;;;;;5009381;28;20018;-77
2023/04/06 11:24:15;;;;;;;8.37;5.30;;;10.30;63.30;;;;;;5011229;28;20354;-78
2023/04/06 11:26:56;;;;;;;10.02;4.95;;;10.30;62.80;;;;;;5014090;28;20376;-77
2023/04/06 11:29:25;;;;;;;7.93;5.05;;;10.40;62.90;;;;;;5013046;28;20044;-76
2023/04/06 11:31:52;;;;;;;7.63;4.32;;;10.40;62.30;;;;;;5006323;28;20085;-76
2023/04/06 11:34:20;;;;;;;8.10;4.63;;;10.40;62.00;;;;;;5010924;28;20030;-77
2023/04/06 11:36:48;;;;;;;9.85;4.70;;;10.30;60.40;;;;;;5013119;28;20030;-76
2023/04/06 11:39:19;;;;;;;9.52;4.90;;;10.30;61.00;;;;;;5008558;28;20116;-77
2023/04/06 11:41:49;;;;;;;8.27;4.82;;;10.30;61.50;;;;;;5008750;28;20501;-77
2023/04/06 11:44:15;;;;;;;8.60;4.72;;;10.30;61.30;;;;;;5009690;28;20037;-76
2023/04/06 11:46:50;;;;;;;10.10;5.10;;;10.30;61.20;;;;;;5011214;28;20034;-78
2023/04/06 11:49:17;;;;;;;7.35;4.53;;;10.30;61.30;;;;;;5011449;28;20056;-77
2023/04/06 11:51:42;;;;;;;8.57;4.68;;;10.40;60.70;;;;;;5009787;28;20026;-77
2023/04/06 11:54:08;;;;;;;7.93;4.53;;;10.40;60.10;;;;;;5005088;28;20168;-77
2023/04/06 11:56:34;;;;;;;8.32;4.68;;;10.60;59.70;;;;;;5010279;28;20125;-77
2023/04/06 11:59:03;;;;;;;6.18;4.50;;;10.80;58.90;;;;;;5010941;28;20029;-77
2023/04/06 12:01:28;;;;;;;7.38;4.50;;;10.90;58.60;;;;;;5007579;28;20034;-78
2023/04/06 12:03:54;;;;;;;8.75;4.88;;;11.10;58.60;;;;;;5015100;28;20387;-77
2023/04/06 12:06:20;;;;;;;10.40;4.75;;;11.10;58.50;;;;;;5012426;28;20022;-78
2023/04/06 12:08:45;;;;;;;11.70;5.80;;;11.30;58.60;;;;;;5011733;28;20061;-76
2023/04/06 12:11:11;;;;;;;8.45;4.47;;;11.30;59.20;;;;;;5008048;28;20034;-76
2023/04/06 12:13:37;;;;;;;6.97;4.82;;;11.30;58.80;;;;;;5006495;28;21266;-76
2023/04/06 12:16:03;;;;;;;8.63;5.18;;;11.30;58.20;;;;;;5023977;28;20133;-77
2023/04/06 12:18:30;;;;;;;9.05;5.07;;;11.30;59.00;;;;;;5006151;28;20026;-77
2023/04/06 12:20:56;;;;;;;9.18;4.72;;;11.40;58.60;;;;;;5012914;28;20049;-76
2023/04/06 12:23:21;;;;;;;8.98;5.03;;;11.30;59.00;;;;;;5006059;28;20033;-77
2023/04/06 12:25:47;;;;;;;11.05;5.00;;;11.40;58.30;;;;;;5012643;28;20037;-77
2023/04/06 12:28:13;;;;;;;10.52;5.45;;;11.40;58.70;;;;;;5008128;28;20025;-76
2023/04/06 12:30:40;;;;;;;7.82;4.38;;;11.40;58.40;;;;;;4998070;28;20026;-75
2023/04/06 12:33:06;;;;;;;8.52;5.07;;;11.40;58.70;;;;;;5011855;28;20018;-75
2023/04/06 12:35:36;;;;;;;8.30;4.80;;;11.40;58.70;;;;;;5009774;28;21077;-76
2023/04/06 12:38:02;;;;;;;8.57;5.13;;;11.50;58.10;;;;;;5004086;28;20030;-75
2023/04/06 12:40:28;;;;;;;9.85;4.85;;;11.50;57.90;;;;;;5011514;28;20555;-75
2023/04/06 12:42:53;;;;;;;7.10;4.25;;;11.60;57.10;;;;;;5012644;28;20155;-76
2023/04/06 12:45:19;;;;;;;7.15;4.28;;;11.60;57.40;;;;;;5015515;28;20029;-77